createdAt,value
2018-09-17T00:00:12.214Z,6.50
2018-09-17T00:02:40.624Z,6.53
2018-09-17T00:05:09.007Z,7.10
2018-09-17T00:07:37.870Z,6.47
2018-09-17T00:10:06.246Z,7.10
2018-09-17T00:12:34.640Z,6.33
2018-09-17T00:15:03.032Z,7.20
2018-09-17T00:17:31.660Z,7.60
2018-09-17T00:20:00.066Z,6.57
2018-09-17T00:22:29.661Z,5.97
2018-09-17T00:24:58.062Z,6.30
2018-09-17T00:27:26.412Z,6.30
2018-09-17T00:29:54.760Z,6.97
2018-09-17T00:32:23.180Z,6.50
2018-09-17T00:34:51.522Z,6.67
2018-09-17T00:37:19.976Z,6.47
2018-09-17T00:39:48.318Z,7.63
2018-09-17T00:42:16.690Z,6.30
2018-09-17T00:44:45.769Z,6.30
2018-09-17T00:47:14.142Z,6.10
2018-09-17T00:49:43.018Z,5.40
2018-09-17T00:52:11.420Z,5.77
2018-09-17T00:54:40.738Z,4.90
2018-09-17T00:57:09.091Z,5.33
2018-09-17T00:59:37.467Z,5.07
2018-09-17T01:02:05.830Z,5.10
2018-09-17T01:04:34.209Z,4.80
2018-09-17T01:07:02.573Z,4.93
2018-09-17T01:09:36.325Z,4.53
2018-09-17T01:12:04.718Z,4.60
2018-09-17T01:14:33.070Z,4.60
2018-09-17T01:17:01.403Z,4.33
2018-09-17T01:19:29.742Z,4.10
2018-09-17T01:21:58.099Z,4.30
2018-09-17T01:24:26.471Z,4.07
2018-09-17T01:26:54.835Z,4.50
2018-09-17T01:29:23.273Z,4.33
2018-09-17T01:31:51.670Z,3.93
2018-09-17T01:34:20.222Z,4.23
2018-09-17T01:36:48.643Z,4.03
2018-09-17T01:39:16.984Z,4.80
2018-09-17T01:41:45.323Z,4.73
2018-09-17T01:44:13.758Z,4.40
2018-09-17T01:46:42.119Z,4.50
2018-09-17T01:49:10.735Z,4.50
2018-09-17T01:51:39.215Z,4.47
2018-09-17T01:54:07.569Z,4.93
2018-09-17T01:56:35.943Z,4.77
2018-09-17T01:59:05.495Z,4.57
2018-09-17T02:01:33.835Z,4.37
2018-09-17T02:04:02.206Z,4.40
2018-09-17T02:06:31.151Z,4.37
2018-09-17T02:08:59.495Z,4.27
2018-09-17T02:11:27.875Z,4.30
2018-09-17T02:13:56.249Z,4.50
2018-09-17T02:16:24.559Z,4.60
2018-09-17T02:18:52.999Z,4.27
2018-09-17T02:21:21.372Z,4.40
2018-09-17T02:23:49.958Z,3.90
2018-09-17T02:26:18.388Z,4.00
2018-09-17T02:28:46.759Z,3.90
2018-09-17T02:31:15.089Z,3.67
2018-09-17T02:33:43.463Z,4.00
2018-09-17T02:36:11.858Z,3.80
2018-09-17T02:38:40.205Z,4.03
2018-09-17T02:41:08.592Z,3.70
2018-09-17T02:43:36.906Z,4.17
2018-09-17T02:46:05.331Z,3.87
2018-09-17T02:48:33.672Z,3.63
2018-09-17T02:51:02.320Z,3.43
2018-09-17T02:53:30.689Z,4.60
2018-09-17T02:55:59.038Z,3.90
2018-09-17T02:58:27.403Z,4.07
2018-09-17T03:00:55.776Z,3.90
2018-09-17T03:03:24.147Z,3.53
2018-09-17T03:05:54.529Z,3.77
2018-09-17T03:08:22.891Z,3.80
2018-09-17T03:10:51.253Z,3.70
2018-09-17T03:13:19.695Z,4.17
2018-09-17T03:15:52.334Z,4.00
2018-09-17T03:18:33.551Z,3.90
2018-09-17T03:21:02.728Z,4.40
2018-09-17T03:23:31.266Z,4.40
2018-09-17T03:25:59.679Z,3.90
2018-09-17T03:28:28.013Z,4.07
2018-09-17T03:30:57.059Z,4.50
2018-09-17T03:33:25.493Z,3.80
2018-09-17T03:35:53.918Z,3.67
2018-09-17T03:38:35.517Z,3.97
2018-09-17T03:41:04.956Z,3.80
2018-09-17T03:43:34.307Z,4.13
2018-09-17T03:46:02.678Z,4.07
2018-09-17T03:48:32.041Z,4.10
2018-09-17T03:51:00.791Z,4.40
2018-09-17T03:53:29.395Z,4.20
2018-09-17T03:55:57.694Z,4.33
2018-09-17T03:58:26.564Z,4.40
2018-09-17T04:00:54.903Z,4.20
2018-09-17T04:03:23.317Z,4.33
2018-09-17T04:05:51.721Z,4.80
2018-09-17T04:08:20.074Z,4.30
2018-09-17T04:10:48.445Z,4.80
2018-09-17T04:13:16.749Z,4.50
2018-09-17T04:15:45.106Z,4.40
2018-09-17T04:18:13.455Z,4.50
2018-09-17T04:20:42.282Z,4.67
2018-09-17T04:23:10.715Z,4.53
2018-09-17T04:25:39.128Z,5.00
2018-09-17T04:28:07.461Z,4.83
2018-09-17T04:30:35.896Z,4.80
2018-09-17T04:33:05.680Z,4.87
2018-09-17T04:35:34.000Z,5.20
2018-09-17T04:38:02.436Z,4.60
2018-09-17T04:40:30.787Z,4.73
2018-09-17T04:42:59.196Z,4.90
2018-09-17T04:45:27.596Z,4.60
2018-09-17T04:47:55.960Z,4.77
2018-09-17T04:50:24.412Z,5.43
2018-09-17T04:52:52.817Z,5.27
2018-09-17T04:55:21.192Z,4.90
2018-09-17T04:57:49.652Z,4.70
2018-09-17T05:00:18.057Z,4.67
2018-09-17T05:02:46.494Z,4.90
2018-09-17T05:05:15.306Z,5.00
2018-09-17T05:07:43.707Z,4.87
2018-09-17T05:10:12.085Z,4.83
2018-09-17T05:12:40.490Z,4.90
2018-09-17T05:15:08.859Z,4.10
2018-09-17T05:17:37.271Z,4.50
2018-09-17T05:20:05.675Z,4.57
2018-09-17T05:22:34.065Z,4.67
2018-09-17T05:25:02.503Z,4.47
2018-09-17T05:27:30.900Z,5.00
2018-09-17T05:29:59.286Z,4.87
2018-09-17T05:32:35.334Z,4.67
2018-09-17T05:35:03.716Z,4.30
2018-09-17T05:37:32.035Z,4.00
2018-09-17T05:40:00.418Z,4.60
2018-09-17T05:42:28.835Z,4.03
2018-09-17T05:44:57.216Z,4.07
2018-09-17T05:47:25.679Z,4.53
2018-09-17T05:49:54.084Z,4.27
2018-09-17T05:52:22.531Z,4.23
2018-09-17T05:54:51.008Z,4.07
2018-09-17T05:57:19.411Z,4.47
2018-09-17T05:59:47.824Z,3.87
2018-09-17T06:02:16.212Z,4.17
2018-09-17T06:04:44.626Z,3.70
2018-09-17T06:07:13.040Z,3.90
2018-09-17T06:09:41.512Z,3.97
2018-09-17T06:12:10.914Z,4.43
2018-09-17T06:14:39.324Z,3.80
2018-09-17T06:17:07.668Z,4.40
2018-09-17T06:19:36.095Z,3.90
2018-09-17T06:22:04.480Z,4.57
2018-09-17T06:24:32.876Z,4.30
2018-09-17T06:27:01.252Z,4.00
2018-09-17T06:29:29.626Z,4.13
2018-09-17T06:31:58.006Z,3.77
2018-09-17T06:34:26.869Z,3.50
2018-09-17T06:39:23.680Z,4.27
2018-09-17T06:41:52.061Z,3.90
2018-09-17T06:44:20.440Z,3.63
2018-09-17T06:46:48.852Z,4.00
2018-09-17T06:49:17.190Z,3.93
2018-09-17T06:51:45.527Z,3.80
2018-09-17T06:54:13.909Z,3.37
2018-09-17T06:56:42.288Z,3.63
2018-09-17T06:59:10.658Z,3.57
2018-09-17T07:01:39.002Z,3.50
2018-09-17T07:04:07.438Z,3.30
2018-09-17T07:06:35.796Z,3.80
2018-09-17T07:09:05.701Z,3.57
2018-09-17T07:11:34.072Z,3.07
2018-09-17T07:14:02.429Z,3.40
2018-09-17T07:16:30.770Z,3.00
2018-09-17T07:18:59.219Z,3.10
2018-09-17T07:21:27.811Z,3.27
2018-09-17T07:23:56.221Z,16.80
2018-09-17T07:26:24.607Z,3.07
2018-09-17T07:28:53.977Z,3.37
2018-09-17T07:31:22.347Z,3.13
2018-09-17T07:33:50.699Z,3.07
2018-09-17T07:36:19.189Z,3.17
2018-09-17T07:38:47.473Z,2.57
2018-09-17T07:41:15.899Z,2.83
2018-09-17T07:43:44.331Z,2.90
2018-09-17T07:46:12.725Z,2.77
2018-09-17T07:48:41.073Z,2.67
2018-09-17T07:51:09.499Z,2.90
2018-09-17T07:53:37.863Z,2.37
2018-09-17T07:56:12.770Z,2.73
2018-09-17T07:58:41.103Z,2.60
2018-09-17T08:01:09.488Z,2.63
2018-09-17T08:03:37.807Z,2.23
2018-09-17T08:06:06.191Z,2.57
2018-09-17T08:08:34.563Z,2.07
2018-09-17T08:11:02.971Z,2.33
2018-09-17T08:13:31.385Z,2.63
2018-09-17T08:15:59.767Z,2.70
2018-09-17T08:18:28.419Z,2.60
2018-09-17T08:20:56.881Z,2.40
2018-09-17T08:23:25.314Z,2.30
2018-09-17T08:25:53.747Z,2.47
2018-09-17T08:28:22.150Z,2.10
2018-09-17T08:30:50.553Z,1.90
2018-09-17T08:33:20.016Z,1.97
2018-09-17T08:35:48.392Z,2.10
2018-09-17T08:38:17.050Z,2.37
2018-09-17T08:40:45.428Z,2.20
2018-09-17T08:43:13.824Z,2.03
2018-09-17T08:45:42.213Z,1.70
2018-09-17T08:48:10.809Z,4.80
2018-09-17T08:50:39.520Z,2.00
2018-09-17T08:53:08.004Z,3.58
2018-09-17T08:55:41.800Z,1.85
2018-09-17T09:00:22.984Z,1.77
2018-09-17T09:02:56.010Z,1.57
2018-09-17T09:05:29.665Z,1.60
2018-09-17T09:07:58.155Z,1.80
2018-09-17T09:10:31.759Z,1.50
2018-09-17T09:13:05.417Z,1.40
2018-09-17T09:15:42.318Z,1.43
2018-09-17T09:18:10.911Z,1.92
2018-09-17T09:20:40.031Z,1.87
2018-09-17T09:23:08.639Z,1.80
2018-09-17T09:25:37.200Z,2.20
2018-09-17T09:28:05.683Z,2.00
2018-09-17T09:30:34.063Z,1.90
2018-09-17T09:33:02.497Z,1.67
2018-09-17T09:35:30.942Z,2.30
2018-09-17T09:37:59.405Z,1.90
2018-09-17T09:40:28.547Z,1.72
2018-09-17T09:42:56.954Z,2.12
2018-09-17T09:45:25.425Z,1.98
2018-09-17T09:47:54.661Z,1.87
2018-09-17T09:50:23.974Z,2.20
2018-09-17T09:52:52.359Z,1.90
2018-09-17T09:55:21.187Z,2.00
2018-09-17T09:57:49.575Z,2.30
2018-09-17T10:00:23.212Z,1.85
2018-09-17T10:02:56.821Z,1.82
2018-09-17T10:05:25.211Z,1.72
2018-09-17T10:07:53.579Z,1.80
2018-09-17T10:10:27.429Z,1.77
2018-09-17T10:13:01.275Z,2.17
2018-09-17T10:15:39.933Z,1.92
2018-09-17T10:18:13.699Z,14.73
2018-09-17T10:20:42.224Z,3.27
2018-09-17T10:23:10.636Z,1.95
2018-09-17T10:25:39.066Z,1.92
2018-09-17T10:28:07.466Z,2.30
2018-09-17T10:30:35.939Z,2.15
2018-09-17T10:33:05.129Z,2.72
2018-09-17T10:35:34.406Z,2.20
2018-09-17T10:38:02.773Z,1.75
2018-09-17T10:40:31.209Z,1.98
2018-09-17T10:42:59.641Z,1.92
2018-09-17T10:45:28.020Z,2.00
2018-09-17T10:47:56.492Z,2.25
2018-09-17T10:50:25.412Z,2.42
2018-09-17T10:52:53.859Z,1.90
2018-09-17T10:55:22.296Z,2.10
2018-09-17T10:57:51.412Z,2.05
2018-09-17T11:00:20.472Z,2.25
2018-09-17T11:02:48.932Z,2.27
2018-09-17T11:05:17.454Z,2.37
2018-09-17T11:07:45.842Z,2.92
2018-09-17T11:10:14.738Z,2.52
2018-09-17T11:12:43.121Z,1.87
2018-09-17T11:15:11.533Z,2.02
2018-09-17T11:17:40.038Z,2.33
2018-09-17T11:20:09.005Z,2.27
2018-09-17T11:22:37.380Z,2.15
2018-09-17T11:25:05.942Z,2.30
2018-09-17T11:27:34.349Z,2.20
2018-09-17T11:30:02.774Z,2.25
2018-09-17T11:32:31.302Z,2.40
2018-09-17T11:34:59.716Z,2.40
2018-09-17T11:37:28.133Z,2.33
2018-09-17T11:39:56.548Z,2.55
2018-09-17T11:42:24.985Z,2.15
2018-09-17T11:44:53.366Z,2.20
2018-09-17T11:47:21.994Z,5.90
2018-09-17T11:49:50.367Z,2.55
2018-09-17T11:52:18.746Z,2.35
2018-09-17T11:54:47.143Z,2.40
2018-09-17T11:57:15.546Z,2.15
2018-09-17T11:59:43.941Z,2.37
2018-09-17T12:02:17.652Z,2.47
2018-09-17T12:04:51.436Z,2.15
2018-09-17T12:07:25.169Z,2.20
2018-09-17T12:09:53.628Z,2.10
2018-09-17T12:12:22.062Z,2.25
2018-09-17T12:14:50.622Z,2.10
2018-09-17T12:17:19.702Z,2.27
2018-09-17T12:19:48.225Z,2.17
2018-09-17T12:22:16.649Z,2.40
2018-09-17T12:24:45.096Z,2.45
2018-09-17T12:27:13.509Z,2.25
2018-09-17T12:29:41.894Z,2.20
2018-09-17T12:32:10.359Z,2.20
2018-09-17T12:34:38.772Z,2.98
2018-09-17T12:37:07.258Z,2.35
2018-09-17T12:39:35.649Z,2.42
2018-09-17T12:42:04.099Z,2.15
2018-09-17T12:44:32.564Z,2.22
2018-09-17T12:47:00.976Z,2.33
2018-09-17T12:49:29.378Z,2.12
2018-09-17T12:51:57.877Z,2.52
2018-09-17T12:54:26.468Z,2.37
2018-09-17T12:56:54.934Z,2.52
2018-09-17T12:59:23.365Z,2.42
2018-09-17T13:01:51.732Z,11.20
2018-09-17T13:04:20.183Z,2.90
2018-09-17T13:06:48.683Z,2.40
2018-09-17T13:09:17.083Z,2.60
2018-09-17T13:11:46.661Z,2.70
2018-09-17T13:14:15.093Z,2.45
2018-09-17T13:16:43.477Z,2.70
2018-09-17T13:19:12.806Z,2.70
2018-09-17T13:21:41.242Z,2.70
2018-09-17T13:24:09.623Z,2.60
2018-09-17T13:26:38.581Z,2.77
2018-09-17T13:29:06.977Z,5.05
2018-09-17T13:31:35.501Z,3.15
2018-09-17T13:34:03.981Z,2.70
2018-09-17T13:36:32.387Z,2.65
2018-09-17T13:39:00.789Z,2.77
2018-09-17T13:41:29.245Z,2.55
2018-09-17T13:43:57.684Z,2.55
2018-09-17T13:46:26.200Z,2.42
2018-09-17T13:48:55.213Z,2.58
2018-09-17T13:51:24.074Z,2.90
2018-09-17T13:53:52.425Z,2.60
2018-09-17T13:56:20.885Z,2.80
2018-09-17T13:58:49.325Z,2.25
2018-09-17T14:01:17.717Z,2.25
2018-09-17T14:03:46.267Z,2.60
2018-09-17T14:06:14.717Z,2.50
2018-09-17T14:08:43.166Z,2.80
2018-09-17T14:11:11.575Z,2.90
2018-09-17T14:13:40.947Z,2.42
2018-09-17T14:16:10.055Z,2.77
2018-09-17T14:18:39.356Z,2.58
2018-09-17T14:21:08.095Z,2.73
2018-09-17T14:23:36.517Z,2.80
2018-09-17T14:26:05.090Z,3.13
2018-09-17T14:28:33.514Z,2.90
2018-09-17T14:31:01.908Z,3.10
2018-09-17T14:33:35.493Z,3.00
2018-09-17T14:36:04.014Z,2.87
2018-09-17T14:38:32.400Z,2.50
2018-09-17T14:41:00.837Z,2.67
2018-09-17T14:43:29.231Z,3.00
2018-09-17T14:45:58.063Z,2.50
2018-09-17T14:48:26.487Z,2.30
2018-09-17T14:50:55.049Z,2.80
2018-09-17T14:53:23.458Z,2.50
2018-09-17T14:55:51.842Z,2.97
2018-09-17T14:58:20.372Z,2.80
2018-09-17T15:00:48.847Z,2.90
2018-09-17T15:03:17.243Z,3.03
2018-09-17T15:05:46.499Z,2.90
2018-09-17T15:08:15.156Z,2.40
2018-09-17T15:10:43.333Z,2.60
2018-09-17T15:13:11.684Z,2.50
2018-09-17T15:15:46.648Z,2.23
2018-09-17T15:18:15.912Z,3.00
2018-09-17T15:20:44.418Z,2.33
2018-09-17T15:23:12.959Z,2.57
2018-09-17T15:25:41.391Z,2.40
2018-09-17T15:28:09.890Z,2.53
2018-09-17T15:30:38.303Z,2.57
2018-09-17T15:33:06.990Z,2.70
2018-09-17T15:35:35.975Z,2.70
2018-09-17T15:38:04.494Z,2.70
2018-09-17T15:40:33.057Z,2.60
2018-09-17T15:43:01.755Z,2.30
2018-09-17T15:45:30.336Z,2.60
2018-09-17T15:47:58.775Z,2.53
2018-09-17T15:50:27.189Z,2.50
2018-09-17T15:52:55.665Z,2.50
2018-09-17T15:55:24.753Z,2.57
2018-09-17T15:57:53.254Z,2.60
2018-09-17T16:00:21.997Z,2.50
2018-09-17T16:02:50.556Z,2.70
2018-09-17T16:05:19.348Z,2.27
2018-09-17T16:07:47.735Z,2.70
2018-09-17T16:10:16.795Z,2.40
2018-09-17T16:12:45.255Z,2.40
2018-09-17T16:15:13.759Z,2.70
2018-09-17T16:17:42.171Z,2.37
2018-09-17T16:20:11.540Z,2.90
2018-09-17T16:22:39.933Z,2.83
2018-09-17T16:25:08.368Z,2.90
2018-09-17T16:27:36.814Z,2.83
2018-09-17T16:30:06.767Z,2.90
2018-09-17T16:32:35.162Z,3.10
2018-09-17T16:35:04.834Z,2.73
2018-09-17T16:37:33.272Z,2.73
2018-09-17T16:40:01.640Z,3.00
2018-09-17T16:42:30.092Z,3.00
2018-09-17T16:44:58.581Z,2.83
2018-09-17T16:47:27.091Z,2.97
2018-09-17T16:49:55.686Z,3.07
2018-09-17T16:52:24.130Z,3.20
2018-09-17T16:54:52.534Z,3.20
2018-09-17T16:57:20.941Z,3.43
2018-09-17T16:59:49.473Z,3.13
2018-09-17T17:02:17.876Z,3.40
2018-09-17T17:04:46.401Z,3.40
2018-09-17T17:07:14.816Z,3.80
2018-09-17T17:09:43.195Z,3.47
2018-09-17T17:12:11.611Z,3.70
2018-09-17T17:14:39.972Z,3.50
2018-09-17T17:17:08.669Z,3.70
2018-09-17T17:19:37.491Z,4.23
2018-09-17T17:22:06.186Z,3.70
2018-09-17T17:24:35.503Z,4.13
2018-09-17T17:27:03.939Z,4.40
2018-09-17T17:29:32.360Z,4.50
2018-09-17T17:32:00.930Z,5.40
2018-09-17T17:34:29.364Z,5.07
2018-09-17T17:36:57.800Z,4.70
2018-09-17T17:39:26.438Z,5.10
2018-09-17T17:41:54.909Z,4.90
2018-09-17T17:44:24.504Z,5.70
2018-09-17T17:46:53.238Z,7.27
2018-09-17T17:49:21.660Z,6.73
2018-09-17T17:51:50.198Z,5.77
2018-09-17T17:54:18.780Z,6.17
2018-09-17T17:56:48.633Z,5.40
2018-09-17T17:59:17.157Z,4.97
2018-09-17T18:01:45.668Z,5.27
2018-09-17T18:04:14.102Z,5.53
2018-09-17T18:06:42.580Z,5.40
2018-09-17T18:09:11.897Z,5.60
2018-09-17T18:11:40.858Z,5.80
2018-09-17T18:14:09.649Z,5.87
2018-09-17T18:16:38.357Z,5.60
2018-09-17T18:19:07.674Z,4.60
2018-09-17T18:21:36.166Z,5.17
2018-09-17T18:24:07.760Z,5.77
2018-09-17T18:26:36.268Z,5.27
2018-09-17T18:29:04.752Z,5.33
2018-09-17T18:31:33.295Z,5.13
2018-09-17T18:34:01.752Z,5.43
2018-09-17T18:36:30.234Z,5.60
2018-09-17T18:38:58.872Z,4.83
2018-09-17T18:41:27.247Z,4.80
2018-09-17T18:43:55.657Z,5.20
2018-09-17T18:46:24.115Z,4.53
2018-09-17T18:48:52.544Z,4.83
2018-09-17T18:51:21.026Z,5.00
2018-09-17T18:53:49.427Z,5.23
2018-09-17T18:56:18.105Z,4.70
2018-09-17T18:58:46.850Z,5.77
2018-09-17T19:01:15.259Z,5.80
2018-09-17T19:03:43.795Z,7.63
2018-09-17T19:06:12.307Z,12.50
2018-09-17T19:08:40.752Z,11.57
2018-09-17T19:11:09.482Z,9.83
2018-09-17T19:13:37.962Z,8.90
2018-09-17T19:16:06.557Z,7.80
2018-09-17T19:18:35.219Z,8.63
2018-09-17T19:21:03.979Z,7.77
2018-09-17T19:23:37.293Z,6.60
2018-09-17T19:26:05.756Z,6.83
2018-09-17T19:28:39.781Z,8.27
2018-09-17T19:31:08.231Z,9.27
2018-09-17T19:33:36.749Z,8.00
2018-09-17T19:36:05.609Z,6.77
2018-09-17T19:38:39.441Z,6.70
2018-09-17T19:41:08.571Z,6.07
2018-09-17T19:43:36.987Z,6.07
2018-09-17T19:46:11.449Z,5.87
2018-09-17T19:48:39.925Z,6.07
2018-09-17T19:51:13.805Z,5.57
2018-09-17T19:53:42.833Z,5.70
2018-09-17T19:56:11.287Z,5.63
2018-09-17T19:58:45.078Z,5.43
2018-09-17T20:01:13.542Z,5.40
2018-09-17T20:03:42.017Z,6.30
2018-09-17T20:06:16.020Z,5.83
2018-09-17T20:08:44.635Z,5.07
2018-09-17T20:11:13.555Z,5.60
2018-09-17T20:13:42.149Z,6.40
2018-09-17T20:16:10.655Z,5.90
2018-09-17T20:18:39.613Z,5.80
2018-09-17T20:21:08.286Z,5.70
2018-09-17T20:23:36.666Z,5.70
2018-09-17T20:26:05.045Z,5.23
2018-09-17T20:28:33.565Z,5.20
2018-09-17T20:31:02.096Z,5.27
2018-09-17T20:33:32.430Z,4.97
2018-09-17T20:36:00.972Z,5.57
2018-09-17T20:38:29.522Z,6.07
2018-09-17T20:40:57.934Z,5.63
2018-09-17T20:43:26.390Z,5.13
2018-09-17T20:45:54.756Z,6.03
2018-09-17T20:48:23.152Z,5.03
2018-09-17T20:50:51.542Z,6.00
2018-09-17T20:53:19.931Z,5.00
2018-09-17T20:55:48.475Z,5.17
2018-09-17T20:58:16.872Z,5.33
2018-09-17T21:00:45.286Z,5.23
2018-09-17T21:03:13.707Z,5.43
2018-09-17T21:05:42.100Z,5.27
2018-09-17T21:08:10.634Z,4.67
2018-09-17T21:10:39.508Z,4.83
2018-09-17T21:13:09.045Z,5.40
2018-09-17T21:15:37.659Z,4.80
2018-09-17T21:18:06.128Z,5.30
2018-09-17T21:20:34.563Z,6.20
2018-09-17T21:23:03.085Z,5.40
2018-09-17T21:25:31.609Z,4.97
2018-09-17T21:28:00.177Z,6.23
2018-09-17T21:30:28.582Z,5.90
2018-09-17T21:32:56.981Z,5.83
2018-09-17T21:35:25.439Z,5.70
2018-09-17T21:37:53.828Z,6.07
2018-09-17T21:40:22.299Z,6.70
2018-09-17T21:42:50.793Z,6.47
2018-09-17T21:45:19.177Z,5.83
2018-09-17T21:47:47.948Z,6.70
2018-09-17T21:50:16.363Z,6.37
2018-09-17T21:52:44.792Z,6.20
2018-09-17T21:55:13.808Z,6.17
2018-09-17T21:57:42.201Z,6.40
2018-09-17T22:00:11.053Z,6.57
2018-09-17T22:02:39.442Z,6.67
2018-09-17T22:05:07.967Z,7.03
2018-09-17T22:07:36.379Z,6.80
2018-09-17T22:10:04.920Z,6.70
2018-09-17T22:12:33.435Z,7.60
2018-09-17T22:15:01.821Z,7.23
2018-09-17T22:17:30.429Z,7.50
2018-09-17T22:19:58.862Z,6.57
2018-09-17T22:22:27.253Z,6.67
2018-09-17T22:24:55.574Z,6.47
2018-09-17T22:27:23.947Z,6.40
2018-09-17T22:29:52.384Z,6.33
2018-09-17T22:32:21.524Z,6.63
2018-09-17T22:34:50.431Z,6.90
2018-09-17T22:37:19.318Z,7.03
2018-09-17T22:39:47.753Z,7.03
2018-09-17T22:42:16.279Z,7.00
2018-09-17T22:44:44.552Z,8.33
2018-09-17T22:47:12.998Z,7.47
2018-09-17T22:49:41.389Z,7.67
2018-09-17T22:52:09.828Z,8.03
2018-09-17T22:54:38.420Z,7.33
2018-09-17T22:57:07.071Z,7.47
2018-09-17T22:59:35.587Z,6.63
2018-09-17T23:02:04.058Z,7.37
2018-09-17T23:04:32.537Z,6.73
2018-09-17T23:07:01.255Z,7.10
2018-09-17T23:09:29.655Z,7.53
2018-09-17T23:11:58.056Z,7.47
2018-09-17T23:14:26.524Z,6.97
2018-09-17T23:16:55.028Z,7.67
2018-09-17T23:19:24.868Z,6.97
2018-09-17T23:21:53.300Z,7.17
2018-09-17T23:24:21.701Z,6.97
2018-09-17T23:26:50.086Z,6.40
2018-09-17T23:29:18.476Z,7.57
2018-09-17T23:31:46.878Z,6.97
2018-09-17T23:34:15.802Z,6.93
2018-09-17T23:36:44.204Z,7.00
2018-09-17T23:39:13.116Z,6.50
2018-09-17T23:41:41.580Z,6.60
2018-09-17T23:44:09.972Z,6.60
2018-09-17T23:46:38.356Z,7.33
2018-09-17T23:49:06.764Z,6.50
2018-09-17T23:51:35.116Z,6.77
2018-09-17T23:54:03.506Z,7.67
2018-09-17T23:56:31.936Z,7.27
2018-09-17T23:59:00.392Z,6.57
